sensor_id;sensor_type;location;lat;lon;timestamp;temperature;humidity
10566;DHT22;5331;48.148;16.326;2023-09-18T00:01:06;17.30;1.00
10566;DHT22;5331;48.148;16.326;2023-09-18T00:03:34;17.30;1.00
10566;DHT22;5331;48.148;16.326;2023-09-18T00:06:01;17.30;1.00
10566;DHT22;5331;48.148;16.326;2023-09-18T00:08:28;17.30;1.00
10566;DHT22;5331;48.148;16.326;2023-09-18T00:10:56;17.20;1.00
10566;DHT22;5331;48.148;16.326;2023-09-18T00:13:23;17.20;1.00
10566;DHT22;5331;48.148;16.326;2023-09-18T00:15:54;17.20;1.00
10566;DHT22;5331;48.148;16.326;2023-09-18T00:18:21;17.20;1.00
10566;DHT22;5331;48.148;16.326;2023-09-18T00:20:48;17.20;1.00
10566;DHT22;5331;48.148;16.326;2023-09-18T00:23:17;17.10;1.00
10566;DHT22;5331;48.148;16.326;2023-09-18T00:25:44;17.00;1.00
10566;DHT22;5331;48.148;16.326;2023-09-18T00:28:12;17.00;1.00
10566;DHT22;5331;48.148;16.326;2023-09-18T00:30:47;17.00;1.00
10566;DHT22;5331;48.148;16.326;2023-09-18T00:33:15;17.00;1.00
10566;DHT22;5331;48.148;16.326;2023-09-18T00:35:45;16.90;1.00
10566;DHT22;5331;48.148;16.326;2023-09-18T00:38:12;16.90;1.00
10566;DHT22;5331;48.148;16.326;2023-09-18T00:40:40;16.90;1.00
10566;DHT22;5331;48.148;16.326;2023-09-18T00:43:07;16.80;1.00
10566;DHT22;5331;48.148;16.326;2023-09-18T00:45:39;16.80;1.00
10566;DHT22;5331;48.148;16.326;2023-09-18T00:48:07;16.80;1.00
10566;DHT22;5331;48.148;16.326;2023-09-18T00:50:35;16.80;1.00
10566;DHT22;5331;48.148;16.326;2023-09-18T00:53:02;16.80;1.00
10566;DHT22;5331;48.148;16.326;2023-09-18T00:55:30;16.80;1.00
10566;DHT22;5331;48.148;16.326;2023-09-18T00:57:58;16.80;1.00
10566;DHT22;5331;48.148;16.326;2023-09-18T01:00:25;16.70;1.00
10566;DHT22;5331;48.148;16.326;2023-09-18T01:02:53;16.70;1.00
10566;DHT22;5331;48.148;16.326;2023-09-18T01:05:20;16.70;1.00
10566;DHT22;5331;48.148;16.326;2023-09-18T01:07:47;16.70;1.00
10566;DHT22;5331;48.148;16.326;2023-09-18T01:10:15;16.60;1.00
10566;DHT22;5331;48.148;16.326;2023-09-18T01:12:46;16.60;1.00
10566;DHT22;5331;48.148;16.326;2023-09-18T01:15:19;16.60;1.00
10566;DHT22;5331;48.148;16.326;2023-09-18T01:17:48;16.60;1.00
10566;DHT22;5331;48.148;16.326;2023-09-18T01:20:17;16.60;1.00
10566;DHT22;5331;48.148;16.326;2023-09-18T01:22:45;16.50;1.00
10566;DHT22;5331;48.148;16.326;2023-09-18T01:25:14;16.60;1.00
10566;DHT22;5331;48.148;16.326;2023-09-18T01:27:41;16.50;1.00
10566;DHT22;5331;48.148;16.326;2023-09-18T01:30:09;16.50;1.00
10566;DHT22;5331;48.148;16.326;2023-09-18T01:32:36;16.40;1.00
10566;DHT22;5331;48.148;16.326;2023-09-18T01:35:05;16.40;1.00
10566;DHT22;5331;48.148;16.326;2023-09-18T01:37:33;16.40;1.00
10566;DHT22;5331;48.148;16.326;2023-09-18T01:40:04;16.30;1.00
10566;DHT22;5331;48.148;16.326;2023-09-18T01:42:32;16.30;1.00
10566;DHT22;5331;48.148;16.326;2023-09-18T01:45:00;16.30;1.00
10566;DHT22;5331;48.148;16.326;2023-09-18T01:47:27;16.30;1.00
10566;DHT22;5331;48.148;16.326;2023-09-18T01:49:54;16.30;1.00
10566;DHT22;5331;48.148;16.326;2023-09-18T01:52:20;16.30;1.00
10566;DHT22;5331;48.148;16.326;2023-09-18T01:54:48;16.30;1.00
10566;DHT22;5331;48.148;16.326;2023-09-18T01:57:16;16.20;1.00
10566;DHT22;5331;48.148;16.326;2023-09-18T01:59:43;16.20;1.00
10566;DHT22;5331;48.148;16.326;2023-09-18T02:02:10;16.10;1.00
10566;DHT22;5331;48.148;16.326;2023-09-18T02:04:37;16.10;1.00
10566;DHT22;5331;48.148;16.326;2023-09-18T02:07:05;16.10;1.00
10566;DHT22;5331;48.148;16.326;2023-09-18T02:09:32;16.10;1.00
10566;DHT22;5331;48.148;16.326;2023-09-18T02:11:59;16.10;1.00
10566;DHT22;5331;48.148;16.326;2023-09-18T02:14:28;16.10;1.00
10566;DHT22;5331;48.148;16.326;2023-09-18T02:16:56;16.00;1.00
10566;DHT22;5331;48.148;16.326;2023-09-18T02:19:23;16.00;1.00
10566;DHT22;5331;48.148;16.326;2023-09-18T02:21:50;16.00;1.00
10566;DHT22;5331;48.148;16.326;2023-09-18T02:24:16;16.00;1.00
10566;DHT22;5331;48.148;16.326;2023-09-18T02:26:43;16.00;1.00
10566;DHT22;5331;48.148;16.326;2023-09-18T02:29:11;16.00;1.00
10566;DHT22;5331;48.148;16.326;2023-09-18T02:31:41;16.00;1.00
10566;DHT22;5331;48.148;16.326;2023-09-18T02:34:08;16.00;1.00
10566;DHT22;5331;48.148;16.326;2023-09-18T02:36:35;16.00;1.00
10566;DHT22;5331;48.148;16.326;2023-09-18T02:39:02;15.90;1.00
10566;DHT22;5331;48.148;16.326;2023-09-18T02:41:29;16.00;1.00
10566;DHT22;5331;48.148;16.326;2023-09-18T02:43:56;15.90;1.00
10566;DHT22;5331;48.148;16.326;2023-09-18T02:46:23;15.90;1.00
10566;DHT22;5331;48.148;16.326;2023-09-18T02:48:51;15.90;1.00
10566;DHT22;5331;48.148;16.326;2023-09-18T02:51:18;15.80;1.00
10566;DHT22;5331;48.148;16.326;2023-09-18T02:53:45;15.80;1.00
10566;DHT22;5331;48.148;16.326;2023-09-18T02:56:12;15.80;1.00
10566;DHT22;5331;48.148;16.326;2023-09-18T02:58:39;15.80;1.00
10566;DHT22;5331;48.148;16.326;2023-09-18T03:01:07;15.80;1.00
10566;DHT22;5331;48.148;16.326;2023-09-18T03:03:34;15.80;1.00
10566;DHT22;5331;48.148;16.326;2023-09-18T03:06:03;15.80;1.00
10566;DHT22;5331;48.148;16.326;2023-09-18T03:08:30;15.90;1.00
10566;DHT22;5331;48.148;16.326;2023-09-18T03:10:58;15.90;1.00
10566;DHT22;5331;48.148;16.326;2023-09-18T03:13:26;15.90;1.00
10566;DHT22;5331;48.148;16.326;2023-09-18T03:15:53;15.90;1.00
10566;DHT22;5331;48.148;16.326;2023-09-18T03:18:20;15.90;1.00
10566;DHT22;5331;48.148;16.326;2023-09-18T03:20:47;15.90;1.00
10566;DHT22;5331;48.148;16.326;2023-09-18T03:23:16;15.90;1.00
10566;DHT22;5331;48.148;16.326;2023-09-18T03:25:43;15.90;1.00
10566;DHT22;5331;48.148;16.326;2023-09-18T03:28:10;15.90;1.00
10566;DHT22;5331;48.148;16.326;2023-09-18T03:30:37;15.90;1.00
10566;DHT22;5331;48.148;16.326;2023-09-18T03:33:04;15.90;1.00
10566;DHT22;5331;48.148;16.326;2023-09-18T03:35:31;15.90;1.00
10566;DHT22;5331;48.148;16.326;2023-09-18T03:37:58;15.80;1.00
10566;DHT22;5331;48.148;16.326;2023-09-18T03:40:27;15.80;1.00
10566;DHT22;5331;48.148;16.326;2023-09-18T03:42:55;15.80;1.00
10566;DHT22;5331;48.148;16.326;2023-09-18T03:45:21;15.80;1.00
10566;DHT22;5331;48.148;16.326;2023-09-18T03:47:48;15.70;1.00
10566;DHT22;5331;48.148;16.326;2023-09-18T03:50:16;15.70;1.00
10566;DHT22;5331;48.148;16.326;2023-09-18T03:52:43;15.70;1.00
10566;DHT22;5331;48.148;16.326;2023-09-18T03:55:10;15.70;1.00
10566;DHT22;5331;48.148;16.326;2023-09-18T03:57:39;15.70;1.00
10566;DHT22;5331;48.148;16.326;2023-09-18T04:00:07;15.80;1.00
10566;DHT22;5331;48.148;16.326;2023-09-18T04:02:34;15.80;1.00
10566;DHT22;5331;48.148;16.326;2023-09-18T04:05:01;15.80;1.00
10566;DHT22;5331;48.148;16.326;2023-09-18T04:07:29;15.80;1.00
10566;DHT22;5331;48.148;16.326;2023-09-18T04:09:56;15.80;1.00
10566;DHT22;5331;48.148;16.326;2023-09-18T04:12:23;15.70;1.00
10566;DHT22;5331;48.148;16.326;2023-09-18T04:14:52;15.70;1.00
10566;DHT22;5331;48.148;16.326;2023-09-18T04:17:18;15.70;1.00
10566;DHT22;5331;48.148;16.326;2023-09-18T04:19:46;15.70;1.00
10566;DHT22;5331;48.148;16.326;2023-09-18T04:22:13;15.70;1.00
10566;DHT22;5331;48.148;16.326;2023-09-18T04:24:40;15.70;1.00
10566;DHT22;5331;48.148;16.326;2023-09-18T04:27:07;15.70;1.00
10566;DHT22;5331;48.148;16.326;2023-09-18T04:29:34;15.70;1.00
10566;DHT22;5331;48.148;16.326;2023-09-18T04:32:04;15.70;1.00
10566;DHT22;5331;48.148;16.326;2023-09-18T04:34:31;15.70;1.00
10566;DHT22;5331;48.148;16.326;2023-09-18T04:36:58;15.70;1.00
10566;DHT22;5331;48.148;16.326;2023-09-18T04:39:25;15.70;1.00
10566;DHT22;5331;48.148;16.326;2023-09-18T04:41:52;15.70;1.00
10566;DHT22;5331;48.148;16.326;2023-09-18T04:44:19;15.80;1.00
10566;DHT22;5331;48.148;16.326;2023-09-18T04:46:45;15.80;1.00
10566;DHT22;5331;48.148;16.326;2023-09-18T04:49:15;15.80;1.00
10566;DHT22;5331;48.148;16.326;2023-09-18T04:51:42;16.00;1.00
10566;DHT22;5331;48.148;16.326;2023-09-18T04:54:09;16.10;1.00
10566;DHT22;5331;48.148;16.326;2023-09-18T04:56:36;16.30;1.00
10566;DHT22;5331;48.148;16.326;2023-09-18T04:59:03;16.30;1.00
10566;DHT22;5331;48.148;16.326;2023-09-18T05:01:30;16.40;1.00
10566;DHT22;5331;48.148;16.326;2023-09-18T05:03:58;16.50;1.00
10566;DHT22;5331;48.148;16.326;2023-09-18T05:06:27;16.50;1.00
10566;DHT22;5331;48.148;16.326;2023-09-18T05:08:54;16.60;1.00
10566;DHT22;5331;48.148;16.326;2023-09-18T05:11:21;16.70;1.00
10566;DHT22;5331;48.148;16.326;2023-09-18T05:13:48;16.80;1.00
10566;DHT22;5331;48.148;16.326;2023-09-18T05:16:16;16.90;1.00
10566;DHT22;5331;48.148;16.326;2023-09-18T05:18:43;17.00;1.00
10566;DHT22;5331;48.148;16.326;2023-09-18T05:21:10;17.10;1.00
10566;DHT22;5331;48.148;16.326;2023-09-18T05:23:38;17.10;1.00
10566;DHT22;5331;48.148;16.326;2023-09-18T05:26:05;17.20;1.00
10566;DHT22;5331;48.148;16.326;2023-09-18T05:28:32;17.20;1.00
10566;DHT22;5331;48.148;16.326;2023-09-18T05:30:59;17.30;1.00
10566;DHT22;5331;48.148;16.326;2023-09-18T05:33:26;17.40;1.00
10566;DHT22;5331;48.148;16.326;2023-09-18T05:35:54;17.40;1.00
10566;DHT22;5331;48.148;16.326;2023-09-18T05:38:21;17.40;1.00
10566;DHT22;5331;48.148;16.326;2023-09-18T05:40:49;17.50;1.00
10566;DHT22;5331;48.148;16.326;2023-09-18T05:43:16;17.60;1.00
10566;DHT22;5331;48.148;16.326;2023-09-18T05:45:50;18.10;1.00
10566;DHT22;5331;48.148;16.326;2023-09-18T05:50:44;18.80;1.00
10566;DHT22;5331;48.148;16.326;2023-09-18T05:53:11;20.10;1.00
10566;DHT22;5331;48.148;16.326;2023-09-18T05:55:39;20.10;1.00
10566;DHT22;5331;48.148;16.326;2023-09-18T05:58:07;20.60;1.00
10566;DHT22;5331;48.148;16.326;2023-09-18T06:00:34;21.00;1.00
10566;DHT22;5331;48.148;16.326;2023-09-18T06:03:02;21.70;1.00
10566;DHT22;5331;48.148;16.326;2023-09-18T06:05:31;22.20;1.00
10566;DHT22;5331;48.148;16.326;2023-09-18T06:07:59;23.00;1.00
10566;DHT22;5331;48.148;16.326;2023-09-18T06:10:26;23.40;1.00
10566;DHT22;5331;48.148;16.326;2023-09-18T06:12:55;23.60;1.00
10566;DHT22;5331;48.148;16.326;2023-09-18T06:15:23;23.90;1.00
10566;DHT22;5331;48.148;16.326;2023-09-18T06:17:50;24.00;1.00
10566;DHT22;5331;48.148;16.326;2023-09-18T06:20:17;24.00;1.00
10566;DHT22;5331;48.148;16.326;2023-09-18T06:22:47;23.90;1.00
10566;DHT22;5331;48.148;16.326;2023-09-18T06:25:14;24.10;1.00
10566;DHT22;5331;48.148;16.326;2023-09-18T06:27:42;24.20;1.00
10566;DHT22;5331;48.148;16.326;2023-09-18T06:30:09;23.80;1.00
10566;DHT22;5331;48.148;16.326;2023-09-18T06:32:38;23.90;1.00
10566;DHT22;5331;48.148;16.326;2023-09-18T06:35:06;24.00;1.00
10566;DHT22;5331;48.148;16.326;2023-09-18T06:37:34;23.90;1.00
10566;DHT22;5331;48.148;16.326;2023-09-18T06:40:01;24.10;1.00
10566;DHT22;5331;48.148;16.326;2023-09-18T06:49:43;23.90;1.00
10566;DHT22;5331;48.148;16.326;2023-09-18T06:52:13;24.30;1.00
10566;DHT22;5331;48.148;16.326;2023-09-18T06:54:41;24.30;1.00
10566;DHT22;5331;48.148;16.326;2023-09-18T06:57:09;24.90;1.00
10566;DHT22;5331;48.148;16.326;2023-09-18T06:59:37;24.80;1.00
10566;DHT22;5331;48.148;16.326;2023-09-18T07:02:25;24.90;1.00
10566;DHT22;5331;48.148;16.326;2023-09-18T07:05:32;24.60;1.00
10566;DHT22;5331;48.148;16.326;2023-09-18T07:11:05;24.40;1.00
10566;DHT22;5331;48.148;16.326;2023-09-18T07:17:11;24.00;1.00
10566;DHT22;5331;48.148;16.326;2023-09-18T07:19:51;24.00;1.00
10566;DHT22;5331;48.148;16.326;2023-09-18T07:22:40;24.10;1.00
10566;DHT22;5331;48.148;16.326;2023-09-18T07:25:09;24.00;1.00
10566;DHT22;5331;48.148;16.326;2023-09-18T07:27:36;24.10;1.00
10566;DHT22;5331;48.148;16.326;2023-09-18T07:30:10;24.20;1.00
10566;DHT22;5331;48.148;16.326;2023-09-18T07:34:18;24.20;1.00
10566;DHT22;5331;48.148;16.326;2023-09-18T07:36:10;24.80;1.00
10566;DHT22;5331;48.148;16.326;2023-09-18T07:38:39;24.80;1.00
10566;DHT22;5331;48.148;16.326;2023-09-18T07:41:08;24.70;1.00
10566;DHT22;5331;48.148;16.326;2023-09-18T07:43:36;24.80;1.00
10566;DHT22;5331;48.148;16.326;2023-09-18T07:46:04;24.90;1.00
10566;DHT22;5331;48.148;16.326;2023-09-18T07:48:32;24.80;1.00
10566;DHT22;5331;48.148;16.326;2023-09-18T07:50:59;24.70;1.00
10566;DHT22;5331;48.148;16.326;2023-09-18T07:53:27;24.70;1.00
10566;DHT22;5331;48.148;16.326;2023-09-18T07:55:58;24.70;1.00
10566;DHT22;5331;48.148;16.326;2023-09-18T07:58:30;25.10;1.00
10566;DHT22;5331;48.148;16.326;2023-09-18T08:00:59;25.00;1.00
10566;DHT22;5331;48.148;16.326;2023-09-18T08:03:26;25.00;1.00
10566;DHT22;5331;48.148;16.326;2023-09-18T08:05:53;24.90;1.00
10566;DHT22;5331;48.148;16.326;2023-09-18T08:08:21;25.10;1.00
10566;DHT22;5331;48.148;16.326;2023-09-18T08:10:52;25.30;1.00
10566;DHT22;5331;48.148;16.326;2023-09-18T08:13:21;25.10;1.00
10566;DHT22;5331;48.148;16.326;2023-09-18T08:15:49;25.10;1.00
10566;DHT22;5331;48.148;16.326;2023-09-18T08:18:18;25.00;1.00
10566;DHT22;5331;48.148;16.326;2023-09-18T08:20:46;25.00;1.00
10566;DHT22;5331;48.148;16.326;2023-09-18T08:25:40;25.20;1.00
10566;DHT22;5331;48.148;16.326;2023-09-18T08:28:08;25.40;1.00
10566;DHT22;5331;48.148;16.326;2023-09-18T08:30:37;25.30;1.00
10566;DHT22;5331;48.148;16.326;2023-09-18T08:33:06;25.30;1.00
10566;DHT22;5331;48.148;16.326;2023-09-18T08:35:33;25.40;1.00
10566;DHT22;5331;48.148;16.326;2023-09-18T08:38:00;25.70;1.00
10566;DHT22;5331;48.148;16.326;2023-09-18T08:40:28;25.80;1.00
10566;DHT22;5331;48.148;16.326;2023-09-18T08:42:56;25.80;1.00
10566;DHT22;5331;48.148;16.326;2023-09-18T08:49:01;26.50;1.00
10566;DHT22;5331;48.148;16.326;2023-09-18T08:51:29;26.50;1.00
10566;DHT22;5331;48.148;16.326;2023-09-18T08:53:56;26.40;1.00
10566;DHT22;5331;48.148;16.326;2023-09-18T08:56:24;26.40;1.00
10566;DHT22;5331;48.148;16.326;2023-09-18T08:58:50;26.40;1.00
10566;DHT22;5331;48.148;16.326;2023-09-18T09:01:18;26.40;1.00
10566;DHT22;5331;48.148;16.326;2023-09-18T09:03:46;26.60;1.00
10566;DHT22;5331;48.148;16.326;2023-09-18T09:06:16;26.70;1.00
10566;DHT22;5331;48.148;16.326;2023-09-18T09:08:43;26.70;1.00
10566;DHT22;5331;48.148;16.326;2023-09-18T09:11:10;26.80;1.00
10566;DHT22;5331;48.148;16.326;2023-09-18T09:13:37;26.80;1.00
10566;DHT22;5331;48.148;16.326;2023-09-18T09:16:04;26.80;1.00
10566;DHT22;5331;48.148;16.326;2023-09-18T09:18:31;26.80;1.00
10566;DHT22;5331;48.148;16.326;2023-09-18T09:21:01;26.80;1.00
10566;DHT22;5331;48.148;16.326;2023-09-18T09:23:53;27.10;1.00
10566;DHT22;5331;48.148;16.326;2023-09-18T09:26:22;27.20;1.00
10566;DHT22;5331;48.148;16.326;2023-09-18T09:28:52;27.20;1.00
10566;DHT22;5331;48.148;16.326;2023-09-18T09:31:27;27.30;1.00
10566;DHT22;5331;48.148;16.326;2023-09-18T09:34:03;27.30;1.00
10566;DHT22;5331;48.148;16.326;2023-09-18T09:36:34;27.20;1.00
10566;DHT22;5331;48.148;16.326;2023-09-18T09:39:02;27.00;1.00
10566;DHT22;5331;48.148;16.326;2023-09-18T09:41:31;27.30;1.00
10566;DHT22;5331;48.148;16.326;2023-09-18T09:44:05;27.40;1.00
10566;DHT22;5331;48.148;16.326;2023-09-18T09:46:34;27.40;1.00
10566;DHT22;5331;48.148;16.326;2023-09-18T09:49:02;27.40;1.00
10566;DHT22;5331;48.148;16.326;2023-09-18T09:51:31;27.10;1.00
10566;DHT22;5331;48.148;16.326;2023-09-18T09:54:02;27.00;1.00
10566;DHT22;5331;48.148;16.326;2023-09-18T09:56:43;26.70;1.00
10566;DHT22;5331;48.148;16.326;2023-09-18T09:59:11;26.60;1.00
10566;DHT22;5331;48.148;16.326;2023-09-18T10:01:38;26.70;1.00
10566;DHT22;5331;48.148;16.326;2023-09-18T10:04:10;26.70;1.00
10566;DHT22;5331;48.148;16.326;2023-09-18T10:06:44;27.00;1.00
10566;DHT22;5331;48.148;16.326;2023-09-18T10:12:12;27.60;1.00
10566;DHT22;5331;48.148;16.326;2023-09-18T10:14:43;27.90;1.00
10566;DHT22;5331;48.148;16.326;2023-09-18T10:17:16;27.80;1.00
10566;DHT22;5331;48.148;16.326;2023-09-18T10:19:52;27.60;1.00
10566;DHT22;5331;48.148;16.326;2023-09-18T10:22:26;27.40;1.00
10566;DHT22;5331;48.148;16.326;2023-09-18T10:25:02;27.40;1.00
10566;DHT22;5331;48.148;16.326;2023-09-18T10:27:32;27.30;1.00
10566;DHT22;5331;48.148;16.326;2023-09-18T10:30:00;27.50;1.00
10566;DHT22;5331;48.148;16.326;2023-09-18T10:32:31;27.50;1.00
10566;DHT22;5331;48.148;16.326;2023-09-18T10:34:59;27.30;1.00
10566;DHT22;5331;48.148;16.326;2023-09-18T10:37:28;27.30;1.00
10566;DHT22;5331;48.148;16.326;2023-09-18T10:39:56;27.40;1.00
10566;DHT22;5331;48.148;16.326;2023-09-18T10:42:27;27.40;1.00
10566;DHT22;5331;48.148;16.326;2023-09-18T10:44:57;27.60;1.00
10566;DHT22;5331;48.148;16.326;2023-09-18T10:47:24;27.90;1.00
10566;DHT22;5331;48.148;16.326;2023-09-18T10:49:52;28.10;1.00
10566;DHT22;5331;48.148;16.326;2023-09-18T10:52:19;28.10;1.00
10566;DHT22;5331;48.148;16.326;2023-09-18T10:54:46;28.00;1.00
10566;DHT22;5331;48.148;16.326;2023-09-18T10:57:13;27.90;1.00
10566;DHT22;5331;48.148;16.326;2023-09-18T10:59:44;27.60;1.00
10566;DHT22;5331;48.148;16.326;2023-09-18T11:02:15;27.60;1.00
10566;DHT22;5331;48.148;16.326;2023-09-18T11:04:44;27.70;1.00
10566;DHT22;5331;48.148;16.326;2023-09-18T11:07:19;28.00;1.00
10566;DHT22;5331;48.148;16.326;2023-09-18T11:09:46;28.10;1.00
10566;DHT22;5331;48.148;16.326;2023-09-18T11:12:15;28.10;1.00
10566;DHT22;5331;48.148;16.326;2023-09-18T11:14:45;27.90;1.00
10566;DHT22;5331;48.148;16.326;2023-09-18T11:17:34;28.00;1.00
10566;DHT22;5331;48.148;16.326;2023-09-18T11:20:09;27.80;1.00
10566;DHT22;5331;48.148;16.326;2023-09-18T11:22:47;27.70;1.00
10566;DHT22;5331;48.148;16.326;2023-09-18T11:25:37;27.80;1.00
10566;DHT22;5331;48.148;16.326;2023-09-18T11:28:08;27.90;1.00
10566;DHT22;5331;48.148;16.326;2023-09-18T11:30:50;27.90;1.00
10566;DHT22;5331;48.148;16.326;2023-09-18T11:33:34;27.80;1.00
10566;DHT22;5331;48.148;16.326;2023-09-18T11:36:07;27.70;1.00
10566;DHT22;5331;48.148;16.326;2023-09-18T11:38:52;27.60;1.00
10566;DHT22;5331;48.148;16.326;2023-09-18T11:41:22;27.40;1.00
10566;DHT22;5331;48.148;16.326;2023-09-18T11:43:51;27.20;1.00
10566;DHT22;5331;48.148;16.326;2023-09-18T11:46:19;27.30;1.00
10566;DHT22;5331;48.148;16.326;2023-09-18T11:48:50;27.30;1.00
10566;DHT22;5331;48.148;16.326;2023-09-18T11:51:23;27.40;1.00
10566;DHT22;5331;48.148;16.326;2023-09-18T11:53:55;27.60;1.00
10566;DHT22;5331;48.148;16.326;2023-09-18T11:56:22;27.60;1.00
10566;DHT22;5331;48.148;16.326;2023-09-18T11:58:51;27.80;1.00
10566;DHT22;5331;48.148;16.326;2023-09-18T12:01:20;27.80;1.00
10566;DHT22;5331;48.148;16.326;2023-09-18T12:03:54;28.00;1.00
10566;DHT22;5331;48.148;16.326;2023-09-18T12:06:21;28.00;1.00
10566;DHT22;5331;48.148;16.326;2023-09-18T12:08:51;27.90;1.00
10566;DHT22;5331;48.148;16.326;2023-09-18T12:11:26;28.00;1.00
10566;DHT22;5331;48.148;16.326;2023-09-18T12:17:21;28.10;1.00
10566;DHT22;5331;48.148;16.326;2023-09-18T12:19:53;28.10;1.00
10566;DHT22;5331;48.148;16.326;2023-09-18T12:22:24;28.10;1.00
10566;DHT22;5331;48.148;16.326;2023-09-18T12:24:51;28.00;1.00
10566;DHT22;5331;48.148;16.326;2023-09-18T12:27:18;28.10;1.00
10566;DHT22;5331;48.148;16.326;2023-09-18T12:29:46;28.00;1.00
10566;DHT22;5331;48.148;16.326;2023-09-18T12:32:13;28.20;1.00
10566;DHT22;5331;48.148;16.326;2023-09-18T12:34:40;28.30;1.00
10566;DHT22;5331;48.148;16.326;2023-09-18T12:37:09;28.50;1.00
10566;DHT22;5331;48.148;16.326;2023-09-18T12:39:36;28.40;1.00
10566;DHT22;5331;48.148;16.326;2023-09-18T12:42:04;28.30;1.00
10566;DHT22;5331;48.148;16.326;2023-09-18T12:44:31;28.10;1.00
10566;DHT22;5331;48.148;16.326;2023-09-18T12:46:58;28.10;1.00
10566;DHT22;5331;48.148;16.326;2023-09-18T12:49:30;28.00;1.00
10566;DHT22;5331;48.148;16.326;2023-09-18T12:51:58;28.00;1.00
10566;DHT22;5331;48.148;16.326;2023-09-18T12:54:39;28.10;1.00
10566;DHT22;5331;48.148;16.326;2023-09-18T12:57:08;28.10;1.00
10566;DHT22;5331;48.148;16.326;2023-09-18T12:59:38;28.20;1.00
10566;DHT22;5331;48.148;16.326;2023-09-18T13:02:05;28.00;1.00
10566;DHT22;5331;48.148;16.326;2023-09-18T13:04:33;28.00;1.00
10566;DHT22;5331;48.148;16.326;2023-09-18T13:07:13;27.90;1.00
10566;DHT22;5331;48.148;16.326;2023-09-18T13:09:41;27.70;1.00
10566;DHT22;5331;48.148;16.326;2023-09-18T13:12:09;27.90;1.00
10566;DHT22;5331;48.148;16.326;2023-09-18T13:14:57;27.80;1.00
10566;DHT22;5331;48.148;16.326;2023-09-18T13:17:25;27.90;1.00
10566;DHT22;5331;48.148;16.326;2023-09-18T13:19:52;28.00;1.00
10566;DHT22;5331;48.148;16.326;2023-09-18T13:22:23;27.90;1.00
10566;DHT22;5331;48.148;16.326;2023-09-18T13:24:56;28.00;1.00
10566;DHT22;5331;48.148;16.326;2023-09-18T13:27:23;28.00;1.00
10566;DHT22;5331;48.148;16.326;2023-09-18T13:29:51;27.70;1.00
10566;DHT22;5331;48.148;16.326;2023-09-18T13:32:18;27.60;1.00
10566;DHT22;5331;48.148;16.326;2023-09-18T13:34:45;27.70;1.00
10566;DHT22;5331;48.148;16.326;2023-09-18T13:37:12;27.50;1.00
10566;DHT22;5331;48.148;16.326;2023-09-18T13:39:42;27.40;1.00
10566;DHT22;5331;48.148;16.326;2023-09-18T13:42:12;27.40;1.00
10566;DHT22;5331;48.148;16.326;2023-09-18T13:44:39;27.00;1.00
10566;DHT22;5331;48.148;16.326;2023-09-18T13:47:06;27.00;1.00
10566;DHT22;5331;48.148;16.326;2023-09-18T13:49:33;26.90;1.00
10566;DHT22;5331;48.148;16.326;2023-09-18T13:52:00;26.90;1.00
10566;DHT22;5331;48.148;16.326;2023-09-18T13:54:26;26.90;1.00
10566;DHT22;5331;48.148;16.326;2023-09-18T13:56:55;26.90;1.00
10566;DHT22;5331;48.148;16.326;2023-09-18T13:59:23;26.90;1.00
10566;DHT22;5331;48.148;16.326;2023-09-18T14:01:50;27.00;1.00
10566;DHT22;5331;48.148;16.326;2023-09-18T14:04:17;27.00;1.00
10566;DHT22;5331;48.148;16.326;2023-09-18T14:06:45;26.90;1.00
10566;DHT22;5331;48.148;16.326;2023-09-18T14:09:12;26.80;1.00
10566;DHT22;5331;48.148;16.326;2023-09-18T14:11:38;26.80;1.00
10566;DHT22;5331;48.148;16.326;2023-09-18T14:14:05;26.80;1.00
10566;DHT22;5331;48.148;16.326;2023-09-18T14:16:34;26.80;1.00
10566;DHT22;5331;48.148;16.326;2023-09-18T14:19:01;26.70;1.00
10566;DHT22;5331;48.148;16.326;2023-09-18T14:21:29;26.70;1.00
10566;DHT22;5331;48.148;16.326;2023-09-18T14:23:56;26.70;1.00
10566;DHT22;5331;48.148;16.326;2023-09-18T14:26:23;26.60;1.00
10566;DHT22;5331;48.148;16.326;2023-09-18T14:28:50;26.60;1.00
10566;DHT22;5331;48.148;16.326;2023-09-18T14:31:17;26.70;1.00
10566;DHT22;5331;48.148;16.326;2023-09-18T14:33:46;26.80;1.00
10566;DHT22;5331;48.148;16.326;2023-09-18T14:36:14;26.80;1.00
10566;DHT22;5331;48.148;16.326;2023-09-18T14:38:42;26.60;1.00
10566;DHT22;5331;48.148;16.326;2023-09-18T14:41:11;26.50;1.00
10566;DHT22;5331;48.148;16.326;2023-09-18T14:43:44;26.50;1.00
10566;DHT22;5331;48.148;16.326;2023-09-18T14:46:12;26.50;1.00
10566;DHT22;5331;48.148;16.326;2023-09-18T14:48:40;26.40;1.00
10566;DHT22;5331;48.148;16.326;2023-09-18T14:51:10;26.40;1.00
10566;DHT22;5331;48.148;16.326;2023-09-18T14:53:39;26.50;1.00
10566;DHT22;5331;48.148;16.326;2023-09-18T14:56:08;26.50;1.00
10566;DHT22;5331;48.148;16.326;2023-09-18T14:58:36;26.60;1.00
10566;DHT22;5331;48.148;16.326;2023-09-18T15:01:04;26.50;1.00
10566;DHT22;5331;48.148;16.326;2023-09-18T15:03:33;26.50;1.00
10566;DHT22;5331;48.148;16.326;2023-09-18T15:06:00;26.50;1.00
10566;DHT22;5331;48.148;16.326;2023-09-18T15:08:30;26.50;1.00
10566;DHT22;5331;48.148;16.326;2023-09-18T15:10:58;26.50;1.00
10566;DHT22;5331;48.148;16.326;2023-09-18T15:13:27;26.60;1.00
10566;DHT22;5331;48.148;16.326;2023-09-18T15:15:55;26.60;1.00
10566;DHT22;5331;48.148;16.326;2023-09-18T15:18:24;26.50;1.00
10566;DHT22;5331;48.148;16.326;2023-09-18T15:20:53;26.40;1.00
10566;DHT22;5331;48.148;16.326;2023-09-18T15:23:22;26.30;1.00
10566;DHT22;5331;48.148;16.326;2023-09-18T15:25:53;26.40;1.00
10566;DHT22;5331;48.148;16.326;2023-09-18T15:28:22;26.40;1.00
10566;DHT22;5331;48.148;16.326;2023-09-18T15:30:52;26.30;1.00
10566;DHT22;5331;48.148;16.326;2023-09-18T15:33:21;26.20;1.00
10566;DHT22;5331;48.148;16.326;2023-09-18T15:35:49;26.20;1.00
10566;DHT22;5331;48.148;16.326;2023-09-18T15:38:19;26.20;1.00
10566;DHT22;5331;48.148;16.326;2023-09-18T15:40:47;26.10;1.00
10566;DHT22;5331;48.148;16.326;2023-09-18T15:43:17;26.00;1.00
10566;DHT22;5331;48.148;16.326;2023-09-18T15:45:46;26.00;1.00
10566;DHT22;5331;48.148;16.326;2023-09-18T15:48:15;25.90;1.00
10566;DHT22;5331;48.148;16.326;2023-09-18T15:50:44;25.90;1.00
10566;DHT22;5331;48.148;16.326;2023-09-18T15:53:12;25.80;1.00
10566;DHT22;5331;48.148;16.326;2023-09-18T15:55:41;25.70;1.00
10566;DHT22;5331;48.148;16.326;2023-09-18T15:58:10;25.70;1.00
10566;DHT22;5331;48.148;16.326;2023-09-18T16:00:40;25.70;1.00
10566;DHT22;5331;48.148;16.326;2023-09-18T16:03:09;25.70;1.00
10566;DHT22;5331;48.148;16.326;2023-09-18T16:05:37;25.70;1.00
10566;DHT22;5331;48.148;16.326;2023-09-18T16:08:06;25.70;1.00
10566;DHT22;5331;48.148;16.326;2023-09-18T16:10:36;25.60;1.00
10566;DHT22;5331;48.148;16.326;2023-09-18T16:13:05;25.60;1.00
10566;DHT22;5331;48.148;16.326;2023-09-18T16:15:33;25.60;1.00
10566;DHT22;5331;48.148;16.326;2023-09-18T16:18:04;25.60;1.00
10566;DHT22;5331;48.148;16.326;2023-09-18T16:20:33;25.60;1.00
10566;DHT22;5331;48.148;16.326;2023-09-18T16:23:01;25.60;1.00
10566;DHT22;5331;48.148;16.326;2023-09-18T16:25:30;25.50;1.00